Latest Weather Observations for Tibooburra Airport

IDN60801

Issued at 1:03 pm EST Saturday 1 October 2016 (issued every 30 minutes, with the page automatically refreshed every 10 minutes)

About weather observations | Map of weather stations | Latest weather observations for NSW | Other Formats
Station Details ID: 046126 Name: TIBOOBURRA AIRPORT Lat: -29.44 Lon: 142.06 Height: 176.4 m
Data from the previous 72 hours. | See also: Recent months at Tibooburra Airport
Date/Time
EST
Temp
°C
App
Temp
°C
Dew
Point
°C
Rel
Hum
%
Delta-T
°C
Wind Press
QNH
hPa
Press
MSL
hPa
Rain since
9am
mm
Dir  Spd
km/h
Gust
km/h
Spd
kts
Gust
kts
01/01:00pm 21.9 16.7 2.6 28 9.2 WNW 19 30 10 16 1012.4 1011.7 0.0
01/12:30pm 21.1 15.8 1.9 28 9.0 NW 19 24 10 13 1013.1 1012.4 0.0
01/12:00pm 20.2 16.1 2.5 31 8.3 NW 13 22 7 12 1013.2 1012.5 0.0
01/11:30am 19.7 15.3 2.6 32 8.0 WNW 15 32 8 17 1013.7 1013.0 0.0
01/11:00am 19.1 14.7 2.5 33 7.7 WNW 15 22 8 12 1014.1 1013.4 0.0
01/10:30am 18.8 14.1 3.0 35 7.4 WNW 17 24 9 13 1014.5 1013.8 0.0
01/10:00am 18.2 12.9 2.9 36 7.1 WNW 20 28 11 15 1014.4 1013.7 0.0
01/09:30am 17.2 12.0 3.5 40 6.4 WNW 20 30 11 16 1014.5 1014.1 0.0
01/09:00am 16.3 11.2 4.0 44 5.8 NW 20 26 11 14 1014.4 1014.0 0.0
01/08:30am 15.5 10.3 3.6 45 5.5 NW 20 26 11 14 1014.3 1013.9 0.0
01/08:00am 14.6 9.4 3.4 47 5.1 WNW 20 26 11 14 1014.1 1013.7 0.0
01/07:30am 13.3 8.3 3.7 52 4.4 WNW 19 22 10 12 1013.7 1013.3 0.0
01/07:00am 11.8 7.2 3.6 57 3.7 NW 17 20 9 11 1013.2 1012.8 0.0
01/06:30am 10.7 5.7 3.5 61 3.2 NW 19 22 10 12 1012.9 1012.5 0.0
01/06:00am 10.8 5.6 3.4 60 3.3 WNW 20 24 11 13 1012.7 1012.3 0.0
01/05:30am 11.1 5.5 3.4 59 3.4 WNW 22 26 12 14 1012.1 1011.6 0.0
01/05:00am 11.0 6.0 3.5 60 3.3 NW 19 22 10 12 1011.4 1010.9 0.0
01/04:30am 11.0 6.0 3.5 60 3.3 WNW 19 24 10 13 1011.3 1010.8 0.0
01/04:00am 11.4 5.8 3.4 58 3.6 WNW 22 28 12 15 1011.1 1010.6 0.0
01/03:30am 11.8 5.5 3.6 57 3.7 WNW 26 32 14 17 1010.9 1010.4 0.0
01/03:00am 11.9 5.6 3.9 58 3.6 WNW 26 32 14 17 1010.8 1010.3 0.0
01/02:30am 12.0 5.7 3.8 57 3.7 WNW 26 32 14 17 1010.9 1010.4 0.0
01/02:00am 12.3 6.0 4.0 57 3.8 WNW 26 33 14 18 1010.7 1010.2 0.0
01/01:30am 12.5 6.2 4.0 56 3.9 WNW 26 33 14 18 1010.9 1010.4 0.0
01/01:00am 12.5 6.7 4.2 57 3.8 WNW 24 32 13 17 1011.0 1010.5 0.0
01/12:30am 12.8 7.4 4.3 56 3.9 WNW 22 30 12 16 1010.7 1010.2 0.0
01/12:00am 12.9 7.9 4.6 57 3.8 NW 20 24 11 13 1010.5 1010.0 0.0
 
Date/Time
EST
Temp
°C
App
Temp
°C
Dew
Point
°C
Rel
Hum
%
Delta-T
°C
Wind Press
QNH
hPa
Press
MSL
hPa
Rain since
9am
mm
Dir  Spd
km/h
Gust
km/h
Spd
kts
Gust
kts
30/11:30pm 12.9 8.2 5.1 59 3.6 NW 19 22 10 12 1010.8 1010.3 0.0
30/11:00pm 12.8 9.2 5.2 60 3.6 NW 13 17 7 9 1011.1 1010.6 0.0
30/10:30pm 13.6 9.7 5.3 57 3.9 NW 15 17 8 9 1010.9 1010.4 0.0
30/10:00pm 13.8 9.9 5.2 56 4.1 WNW 15 19 8 10 1011.5 1011.0 0.0
30/09:30pm 14.4 9.7 5.0 53 4.4 W 19 20 10 11 1011.2 1010.7 0.0
30/09:00pm 14.5 10.5 5.0 53 4.5 WNW 15 20 8 11 1011.0 1010.5 0.0
30/08:30pm 15.0 10.3 5.0 51 4.7 W 19 24 10 13 1010.6 1010.1 0.0
30/08:00pm 15.4 10.6 4.8 49 5.0 WNW 19 24 10 13 1010.1 1009.7 0.0
30/07:30pm 15.8 10.8 4.8 48 5.2 WNW 20 24 11 13 1009.8 1009.4 0.0
30/07:00pm 16.2 10.4 4.6 46 5.5 WNW 24 32 13 17 1009.5 1009.1 0.0
30/06:30pm 16.6 10.0 4.3 44 5.8 WNW 28 35 15 19 1009.0 1008.6 0.0
30/06:00pm 17.5 11.0 4.5 42 6.2 WNW 28 37 15 20 1009.0 1008.6 0.0
30/05:30pm 17.9 10.6 4.5 41 6.4 W 32 43 17 23 1008.9 1008.5 0.0
30/05:00pm 18.4 10.9 4.6 40 6.7 WNW 33 43 18 23 1008.7 1008.3 0.0
30/04:30pm 18.2 10.9 4.4 40 6.6 W 32 44 17 24 1008.6 1008.2 0.0
30/04:00pm 18.4 10.9 4.2 39 6.8 W 33 46 18 25 1008.6 1008.2 0.0
30/03:44pm 18.7 11.3 4.8 40 6.7 W 33 52 18 28 1008.5 1008.1 0.0
30/03:30pm 18.3 10.5 4.8 41 6.5 W 35 46 19 25 1008.5 1008.1 0.0
30/03:00pm 18.6 11.2 4.8 40 6.7 W 33 44 18 24 1008.6 1008.2 0.0
30/02:48pm 18.6 11.2 5.1 41 6.6 WNW 33 56 18 30 1008.5 1008.1 0.0
30/02:30pm 17.8 10.0 4.7 42 6.3 WNW 35 46 19 25 1008.6 1008.2 0.0
30/02:00pm 17.5 9.7 4.8 43 6.1 WNW 35 46 19 25 1008.9 1008.5 0.0
30/01:37pm 17.2 9.7 4.2 42 6.2 WNW 33 52 18 28 1009.0 1008.6 0.0
30/01:30pm 17.5 9.7 4.8 43 6.1 WNW 35 50 19 27 1009.2 1008.8 0.0
30/01:00pm 16.8 9.3 4.5 44 5.9 WNW 33 43 18 23 1009.4 1009.0 0.0
30/12:30pm 16.6 9.1 4.3 44 5.8 WNW 33 46 18 25 1009.5 1009.1 0.0
30/12:00pm 15.3 7.6 3.5 45 5.4 W 33 44 18 24 1009.9 1009.5 0.0
30/11:30am 14.8 7.1 3.6 47 5.1 WNW 33 46 18 25 1009.9 1009.5 0.0
30/11:00am 14.2 6.1 3.4 48 4.9 W 35 46 19 25 1009.9 1009.5 0.0
30/10:30am 13.7 4.8 2.9 48 4.8 W 39 48 21 26 1009.8 1009.4 0.0
30/10:00am 12.8 4.2 2.4 49 4.6 W 37 48 20 26 1009.4 1009.0 0.0
30/09:30am 12.3 4.1 2.5 51 4.3 W 35 46 19 25 1009.3 1008.9 0.0
30/09:00am 11.5 2.4 2.0 52 4.1 WNW 39 50 21 27 1009.3 1008.9 0.0
30/08:30am 10.8 1.4 2.1 55 3.7 W 41 50 22 27 1008.8 1008.4 0.0
30/08:00am 10.2 1.1 2.1 57 3.5 WNW 39 52 21 28 1008.4 1008.0 0.0
30/07:30am 9.7 1.3 1.8 58 3.3 WNW 35 48 19 26 1007.9 1007.5 0.0
30/07:00am 9.0 0.6 1.7 60 3.1 WNW 35 48 19 26 1007.4 1006.9 0.0
30/06:30am 8.5 0.5 1.6 62 2.9 WNW 33 44 18 24 1006.8 1006.3 0.0
30/06:00am 8.6 0.2 1.7 62 2.9 W 35 48 19 26 1006.1 1005.6 0.0
30/05:30am 8.8 -0.3 1.7 61 3.0 W 39 48 21 26 1005.7 1005.2 0.0
30/05:00am 9.0 -0.2 1.4 59 3.2 W 39 54 21 29 1005.5 1005.0 0.0
30/04:30am 9.4 0.6 1.6 58 3.3 W 37 52 20 28 1005.3 1004.8 0.0
30/04:16am 9.5 0.3 1.4 57 3.4 W 39 57 21 31 1005.2 1004.7 0.0
30/04:00am 9.6 0.0 1.3 56 3.5 W 41 50 22 27 1005.0 1004.5 0.0
30/03:30am 10.0 0.8 1.1 54 3.7 W 39 50 21 27 1004.8 1004.3 0.0
30/03:00am 10.2 0.0 1.1 53 3.8 W 44 56 24 30 1004.9 1004.4 0.0
30/02:30am 10.7 2.3 1.5 53 3.9 W 35 46 19 25 1005.3 1004.8 0.0
30/02:00am 11.0 2.3 1.8 53 3.9 W 37 50 20 27 1005.5 1005.0 0.0
30/01:30am 11.4 2.6 1.6 51 4.2 W 37 50 20 27 1005.5 1005.0 0.0
30/01:00am 11.8 4.0 1.4 49 4.5 WNW 32 46 17 25 1005.8 1005.3 0.0
30/12:30am 12.2 3.4 1.2 47 4.7 W 37 46 20 25 1005.9 1005.4 0.0
30/12:00am 12.6 3.4 1.0 45 5.0 WNW 39 50 21 27 1005.8 1005.3 0.0
 
Date/Time
EST
Temp
°C
App
Temp
°C
Dew
Point
°C
Rel
Hum
%
Delta-T
°C
Wind Press
QNH
hPa
Press
MSL
hPa
Rain since
9am
mm
Dir  Spd
km/h
Gust
km/h
Spd
kts
Gust
kts
29/11:30pm 12.5 4.0 0.9 45 4.9 WNW 35 43 19 23 1005.9 1005.4 0.0
29/11:00pm 12.6 5.1 1.0 45 5.0 WNW 30 39 16 21 1006.2 1005.7 0.0
29/10:30pm 13.0 4.9 1.0 44 5.1 WNW 33 43 18 23 1006.2 1005.7 0.0
29/10:00pm 13.2 5.1 0.9 43 5.3 WNW 33 43 18 23 1006.2 1005.7 0.0
29/09:30pm 13.6 5.5 0.9 42 5.5 WNW 33 44 18 24 1006.2 1005.7 0.0
29/09:00pm 13.8 4.9 0.8 41 5.6 WNW 37 48 20 26 1006.0 1005.5 0.0
29/08:30pm 14.1 5.5 0.4 39 5.8 WNW 35 48 19 26 1005.6 1005.1 0.0
29/08:00pm 14.3 5.4 0.6 39 5.9 WNW 37 48 20 26 1005.2 1004.7 0.0
29/07:32pm 14.5 4.4 0.4 38 6.0 WNW 43 61 23 33 1004.8 1004.3 0.0
29/07:30pm 14.5 4.2 0.4 38 6.0 WNW 44 61 24 33 1004.8 1004.3 0.0
29/07:00pm 14.7 4.3 -0.2 36 6.3 WNW 44 63 24 34 1004.5 1004.0 0.0
29/06:57pm 14.8 4.6 -0.1 36 6.3 WNW 43 63 23 34 1004.3 1003.9 0.0
29/06:30pm 14.9 4.2 0.0 36 6.3 WNW 46 59 25 32 1004.2 1003.8 0.0
29/06:08pm 15.3 4.6 -0.1 35 6.6 WNW 46 67 25 36 1003.9 1003.5 0.0
29/06:00pm 15.4 4.7 0.0 35 6.6 WNW 46 61 25 33 1003.9 1003.5 0.0
29/05:37pm 15.7 4.2 -0.1 34 6.8 WNW 50 69 27 37 1003.6 1003.2 0.0
29/05:30pm 15.8 3.6 0.0 34 6.8 WNW 54 69 29 37 1003.5 1003.1 0.0
29/05:05pm 16.1 3.5 0.3 34 6.8 WNW 56 74 30 40 1003.4 1003.0 0.0
29/05:00pm 15.8 3.0 0.0 34 6.8 W 57 74 31 40 1003.4 1003.0 0.0
29/04:34pm 16.3 3.7 0.0 33 7.0 W 56 74 30 40 1003.3 1002.9 0.0
29/04:30pm 16.3 3.5 0.0 33 7.0 W 57 74 31 40 1003.2 1002.8 0.0
29/04:02pm 16.8 5.5 0.9 34 7.0 WNW 50 69 27 37 1003.2 1002.8 0.0
29/04:00pm 16.4 4.6 0.5 34 7.0 WNW 52 69 28 37 1003.2 1002.8 0.0
29/03:46pm 16.2 3.9 -0.1 33 7.0 WNW 54 72 29 39 1003.2 1002.8 0.0
29/03:30pm 16.4 3.7 0.5 34 6.9 WNW 57 72 31 39 1003.0 1002.6 0.0
29/03:00pm 16.2 3.9 -0.1 33 7.0 WNW 54 72 29 39 1003.3 1002.9 0.0
29/02:50pm 16.2 3.6 0.3 34 6.9 WNW 56 74 30 40 1003.4 1003.0 0.0
29/02:30pm 16.4 4.2 0.1 33 7.1 W 54 70 29 38 1003.7 1003.3 0.0
29/02:06pm 16.5 4.3 0.2 33 7.1 WNW 54 72 29 39 1004.0 1003.6 0.0
29/02:00pm 16.3 3.7 0.4 34 7.0 WNW 56 72 30 39 1004.0 1003.6 0.0
29/01:30pm 15.7 4.7 0.7 36 6.5 WNW 48 70 26 38 1004.3 1003.9 0.0
29/01:00pm 15.4 4.0 0.8 37 6.4 WNW 50 69 27 37 1004.6 1004.1 0.0
29/12:33pm 15.2 4.6 1.0 38 6.2 WNW 46 65 25 35 1004.8 1004.3 0.0
29/12:30pm 15.5 5.0 1.6 39 6.2 WNW 46 59 25 32 1004.7 1004.2 0.0
29/12:07pm 14.9 4.0 1.4 40 5.9 WNW 48 67 26 36 1004.8 1004.3 0.0
29/12:00pm 14.2 2.9 1.5 42 5.6 WNW 50 65 27 35 1005.0 1004.5 0.0
29/11:30am 14.1 2.9 1.7 43 5.4 WNW 50 69 27 37 1005.5 1005.0 0.0
29/11:01am 13.4 2.2 1.7 45 5.1 WNW 50 69 27 37 1005.3 1004.8 0.0
29/11:00am 13.4 2.2 1.7 45 5.1 WNW 50 67 27 36 1005.2 1004.7 0.0
29/10:30am 12.8 1.6 1.8 47 4.8 WNW 50 67 27 36 1005.4 1004.9 0.0
29/10:00am 12.6 1.4 1.9 48 4.7 WNW 50 65 27 35 1005.5 1005.0 0.0
29/09:38am 12.0 0.4 1.6 49 4.5 WNW 52 69 28 37 1005.1 1004.6 0.0
29/09:30am 12.1 0.9 1.7 49 4.5 WNW 50 63 27 34 1005.0 1004.5 0.0
29/09:11am 11.8 1.4 2.0 51 4.2 WNW 46 67 25 36 1005.0 1004.5 0.0
29/09:00am 11.6 1.2 2.1 52 4.1 WNW 46 57 25 31 1005.0 1004.5 2.2
29/08:30am 11.0 0.9 1.8 53 3.9 WNW 44 57 24 31 1005.1 1004.6 2.2
29/08:00am 10.4 0.4 2.3 57 3.5 WNW 44 56 24 30 1005.0 1004.5 2.2
29/07:30am 10.0 1.4 2.6 60 3.2 WNW 37 48 20 26 1004.9 1004.4 2.2
29/07:13am 9.8 1.1 2.2 59 3.2 WNW 37 56 20 30 1004.7 1004.2 2.2
29/07:00am 9.6 1.7 2.5 61 3.1 WNW 33 43 18 23 1004.5 1004.0 2.2
29/06:30am 9.4 2.6 2.9 64 2.8 WNW 28 39 15 21 1004.0 1003.6 2.2
29/06:00am 9.6 2.8 2.9 63 2.9 W 28 39 15 21 1003.6 1003.2 2.2
29/05:30am 10.4 1.4 2.3 57 3.5 W 39 50 21 27 1003.2 1002.8 2.2
29/05:00am 10.9 1.9 2.2 55 3.8 W 39 50 21 27 1002.9 1002.5 2.2
29/04:30am 11.5 0.6 1.5 50 4.3 W 48 59 26 32 1002.9 1002.5 2.2
29/04:00am 12.1 1.7 2.0 50 4.4 W 46 61 25 33 1002.7 1002.2 2.2
29/03:32am 12.6 3.2 2.5 50 4.5 W 41 59 22 32 1002.3 1001.8 2.2
29/03:30am 12.6 3.2 2.2 49 4.6 W 41 50 22 27 1002.3 1001.8 2.2
29/03:00am 13.4 5.0 3.5 51 4.5 W 37 52 20 28 1002.2 1001.7 2.2
29/02:38am 13.9 5.3 4.5 53 4.4 W 39 57 21 31 1002.2 1001.7 2.2
29/02:30am 14.0 6.8 5.9 58 3.9 W 33 44 18 24 1002.3 1001.8 2.2
29/02:11am 14.5 7.5 6.1 57 4.1 W 32 52 17 28 1001.8 1001.3 2.2
29/02:00am 14.3 10.6 9.5 73 2.5 W 19 26 10 14 1001.9 1001.4 2.2
29/01:30am 14.3 10.5 9.9 75 2.3 SW 20 28 11 15 1001.6 1001.1 2.2
29/01:00am 15.3 9.0 9.0 66 3.3 WSW 32 43 17 23 1001.5 1001.0 2.2
29/12:30am 15.8 8.2 9.0 64 3.5 W 39 54 21 29 1000.8 1000.3 2.2
29/12:09am 16.7 8.5 10.5 67 3.3 W 44 67 24 36 1000.2 999.7 2.2
29/12:06am 16.9 9.7 12.0 73 2.7 WNW 41 65 22 35 1000.2 999.7 2.2
29/12:00am 16.1 10.7 15.9 99 0.1 NW 39 52 21 28 1000.2 999.7 2.2
 
Date/Time
EST
Temp
°C
App
Temp
°C
Dew
Point
°C
Rel
Hum
%
Delta-T
°C
Wind Press
QNH
hPa
Press
MSL
hPa
Rain since
9am
mm
Dir  Spd
km/h
Gust
km/h
Spd
kts
Gust
kts
28/11:41pm 16.0 11.6 15.7 98 0.2 NNW 33 56 18 30 1000.3 999.8 2.0
28/11:30pm 15.6 11.1 14.8 95 0.5 NNW 32 43 17 23 1000.3 999.8 2.0
28/11:00pm 16.5 12.8 14.9 90 0.9 N 28 37 15 20 999.6 999.1 1.8
28/10:53pm 16.5 11.9 15.2 92 0.8 N 33 48 18 26 999.6 999.1 1.8
28/10:33pm 18.7 15.4 17.9 95 0.5 NNW 32 54 17 29 1001.6 1001.1 1.2
28/10:30pm 18.7 16.1 17.9 95 0.5 NW 28 44 15 24 1001.8 1001.3 1.2
28/10:00pm 19.6 16.9 16.6 83 1.8 NNW 26 41 14 22 1001.4 1000.9 0.2
28/09:30pm 19.2 14.8 15.7 80 2.1 N 33 44 18 24 1000.9 1000.4 0.2
28/09:00pm 19.2 14.4 15.5 79 2.2 N 35 48 19 26 1000.4 999.9 0.2
28/08:38pm 19.1 14.2 15.2 78 2.3 N 35 54 19 29 1000.0 999.5 0.2
28/08:30pm 19.2 13.8 15.1 77 2.4 N 37 52 20 28 1000.0 999.5 0.2
28/08:00pm 19.5 14.5 15.0 75 2.7 N 35 46 19 25 999.8 999.3 0.2
28/07:30pm 19.7 14.5 14.5 72 3.0 N 35 52 19 28 1000.8 1000.3 0.2
28/07:09pm 20.2 15.6 14.6 70 3.3 N 32 50 17 27 1001.3 1000.8 0.2
28/07:00pm 20.4 15.8 14.7 70 3.4 N 32 46 17 25 1001.5 1001.0 0.2
28/06:31pm 21.0 15.1 14.6 67 3.8 N 39 57 21 31 1001.7 1001.2 0.2
28/06:30pm 21.0 15.1 14.6 67 3.8 N 39 56 21 30 1001.7 1001.2 0.2
28/06:00pm 21.1 15.8 15.2 69 3.5 N 37 48 20 26 1001.8 1001.3 0.2
28/05:30pm 18.8 13.8 15.1 79 2.2 N 35 54 19 29 1002.3 1001.8 0.2
28/05:29pm 18.8 13.7 14.9 78 2.3 N 35 54 19 29 1002.4 1001.9 0.2
28/05:00pm 22.7 15.6 9.5 43 7.2 N 37 52 20 28 1002.7 1002.2 0.0
28/04:36pm 22.3 16.0 8.8 42 7.2 N 32 50 17 27 1002.6 1002.1 0.0
28/04:30pm 22.2 15.8 8.7 42 7.2 N 32 43 17 23 1002.7 1002.2 0.0
28/04:00pm 22.3 15.6 9.5 44 7.0 N 35 46 19 25 1003.2 1002.8 0.0
28/03:30pm 23.5 15.7 8.4 38 8.1 N 39 54 21 29 1003.6 1003.2 0.0
28/03:01pm 23.1 18.6 12.7 52 6.0 N 28 46 15 25 1003.7 1003.3 0.0
28/03:00pm 22.8 18.5 12.1 51 6.1 N 26 46 14 25 1003.8 1003.4 0.0
28/02:47pm 20.8 15.9 13.7 64 4.1 N 32 50 17 27 1004.1 1003.7 0.0
28/02:30pm 23.9 16.6 10.2 42 7.6 N 39 52 21 28 1005.0 1004.5 0.0
28/02:00pm 24.4 16.0 8.8 37 8.5 N 43 57 23 31 1005.5 1005.0 0.0
28/01:30pm 25.2 16.5 7.8 33 9.3 N 43 59 23 32 1006.1 1005.6 0.0
28/01:07pm 25.7 16.9 7.3 31 9.8 N 43 61 23 33 1006.4 1005.9 0.0

Other Formats:

Comma delimited format used in spreadsheet applications
http://www.bom.gov.au/fwo/IDN60801/IDN60801.95485.axf

JavaScript Object Notation format (JSON) in row-major order
http://www.bom.gov.au/fwo/IDN60801/IDN60801.95485.json